sensor_id;sensor_type;location;lat;lon;timestamp;P1;durP1;ratioP1;P2;durP2;ratioP2
23884;SDS011;12123;53.088;7.392;2022-12-17T14:37:39;121.88;;;31.98;;
23884;SDS011;12123;53.088;7.392;2022-12-17T14:40:06;147.05;;;36.65;;
23884;SDS011;12123;53.088;7.392;2022-12-17T14:42:35;128.85;;;33.20;;
23884;SDS011;12123;53.088;7.392;2022-12-17T14:45:04;134.35;;;36.13;;
23884;SDS011;12123;53.088;7.392;2022-12-17T14:47:33;130.27;;;35.00;;
23884;SDS011;12123;53.088;7.392;2022-12-17T14:55:01;148.60;;;39.17;;
23884;SDS011;12123;53.088;7.392;2022-12-17T15:00:13;136.25;;;34.95;;
23884;SDS011;12123;53.088;7.392;2022-12-17T15:02:41;144.82;;;37.17;;
23884;SDS011;12123;53.088;7.392;2022-12-17T15:05:15;157.65;;;42.30;;
23884;SDS011;12123;53.088;7.392;2022-12-17T15:07:42;159.07;;;41.40;;
23884;SDS011;12123;53.088;7.392;2022-12-17T15:10:11;158.90;;;42.13;;
23884;SDS011;12123;53.088;7.392;2022-12-17T15:12:39;164.75;;;42.03;;
23884;SDS011;12123;53.088;7.392;2022-12-17T15:15:07;144.80;;;37.58;;
23884;SDS011;12123;53.088;7.392;2022-12-17T15:17:34;156.95;;;41.80;;
23884;SDS011;12123;53.088;7.392;2022-12-17T15:20:01;161.25;;;40.30;;
23884;SDS011;12123;53.088;7.392;2022-12-17T15:22:28;176.77;;;42.90;;
23884;SDS011;12123;53.088;7.392;2022-12-17T15:24:56;162.57;;;43.45;;
23884;SDS011;12123;53.088;7.392;2022-12-17T15:27:23;173.02;;;42.95;;
23884;SDS011;12123;53.088;7.392;2022-12-17T15:29:50;160.57;;;41.97;;
23884;SDS011;12123;53.088;7.392;2022-12-17T15:32:18;171.25;;;40.97;;
23884;SDS011;12123;53.088;7.392;2022-12-17T15:34:45;186.25;;;46.38;;
23884;SDS011;12123;53.088;7.392;2022-12-17T15:37:13;185.60;;;44.63;;
23884;SDS011;12123;53.088;7.392;2022-12-17T15:39:47;184.05;;;45.97;;
23884;SDS011;12123;53.088;7.392;2022-12-17T15:42:15;186.98;;;46.35;;
23884;SDS011;12123;53.088;7.392;2022-12-17T15:45:00;196.20;;;46.15;;
23884;SDS011;12123;53.088;7.392;2022-12-17T15:47:27;200.65;;;47.75;;
23884;SDS011;12123;53.088;7.392;2022-12-17T15:49:54;194.32;;;46.35;;
23884;SDS011;12123;53.088;7.392;2022-12-17T15:52:22;187.10;;;47.60;;
23884;SDS011;12123;53.088;7.392;2022-12-17T15:54:49;188.63;;;47.15;;
23884;SDS011;12123;53.088;7.392;2022-12-17T15:57:16;186.95;;;46.03;;
23884;SDS011;12123;53.088;7.392;2022-12-17T15:59:44;189.43;;;44.78;;
23884;SDS011;12123;53.088;7.392;2022-12-17T16:02:11;190.13;;;45.55;;
23884;SDS011;12123;53.088;7.392;2022-12-17T16:04:38;181.60;;;43.65;;
23884;SDS011;12123;53.088;7.392;2022-12-17T16:07:06;184.15;;;48.50;;
23884;SDS011;12123;53.088;7.392;2022-12-17T16:09:33;181.20;;;46.45;;
23884;SDS011;12123;53.088;7.392;2022-12-17T16:12:00;192.93;;;45.83;;
23884;SDS011;12123;53.088;7.392;2022-12-17T16:14:27;189.73;;;46.55;;
23884;SDS011;12123;53.088;7.392;2022-12-17T16:16:54;175.80;;;43.75;;
23884;SDS011;12123;53.088;7.392;2022-12-17T16:19:25;194.68;;;45.47;;
23884;SDS011;12123;53.088;7.392;2022-12-17T16:21:52;191.02;;;46.92;;
23884;SDS011;12123;53.088;7.392;2022-12-17T16:24:29;187.70;;;47.78;;
23884;SDS011;12123;53.088;7.392;2022-12-17T16:27:19;186.82;;;43.85;;
23884;SDS011;12123;53.088;7.392;2022-12-17T16:30:02;178.20;;;41.40;;
23884;SDS011;12123;53.088;7.392;2022-12-17T16:32:32;211.38;;;46.85;;
23884;SDS011;12123;53.088;7.392;2022-12-17T16:35:02;211.70;;;46.47;;
23884;SDS011;12123;53.088;7.392;2022-12-17T16:37:32;190.02;;;47.38;;
23884;SDS011;12123;53.088;7.392;2022-12-17T16:40:04;226.65;;;48.88;;
23884;SDS011;12123;53.088;7.392;2022-12-17T16:42:31;204.45;;;47.38;;
23884;SDS011;12123;53.088;7.392;2022-12-17T16:44:58;206.10;;;48.67;;
23884;SDS011;12123;53.088;7.392;2022-12-17T16:47:25;207.38;;;49.90;;
23884;SDS011;12123;53.088;7.392;2022-12-17T16:49:52;196.30;;;47.47;;
23884;SDS011;12123;53.088;7.392;2022-12-17T16:52:19;189.18;;;47.13;;
23884;SDS011;12123;53.088;7.392;2022-12-17T16:54:47;198.20;;;43.83;;
23884;SDS011;12123;53.088;7.392;2022-12-17T16:57:14;183.32;;;46.88;;
23884;SDS011;12123;53.088;7.392;2022-12-17T16:59:41;186.68;;;45.15;;
23884;SDS011;12123;53.088;7.392;2022-12-17T17:02:11;199.88;;;47.10;;
23884;SDS011;12123;53.088;7.392;2022-12-17T17:04:39;204.38;;;47.67;;
23884;SDS011;12123;53.088;7.392;2022-12-17T17:07:06;200.48;;;46.97;;
23884;SDS011;12123;53.088;7.392;2022-12-17T17:09:33;187.02;;;46.58;;
23884;SDS011;12123;53.088;7.392;2022-12-17T17:12:00;203.55;;;47.55;;
23884;SDS011;12123;53.088;7.392;2022-12-17T17:14:27;201.80;;;46.63;;
23884;SDS011;12123;53.088;7.392;2022-12-17T17:16:54;194.85;;;49.25;;
23884;SDS011;12123;53.088;7.392;2022-12-17T17:19:22;221.63;;;47.45;;
23884;SDS011;12123;53.088;7.392;2022-12-17T17:21:49;205.27;;;51.85;;
23884;SDS011;12123;53.088;7.392;2022-12-17T17:24:18;204.52;;;51.45;;
23884;SDS011;12123;53.088;7.392;2022-12-17T17:26:52;207.63;;;45.63;;
23884;SDS011;12123;53.088;7.392;2022-12-17T17:29:19;189.48;;;47.05;;
23884;SDS011;12123;53.088;7.392;2022-12-17T17:31:47;206.32;;;52.03;;
23884;SDS011;12123;53.088;7.392;2022-12-17T17:34:34;204.88;;;47.78;;
23884;SDS011;12123;53.088;7.392;2022-12-17T17:37:01;193.68;;;46.53;;
23884;SDS011;12123;53.088;7.392;2022-12-17T17:39:28;213.40;;;50.13;;
23884;SDS011;12123;53.088;7.392;2022-12-17T17:41:58;209.48;;;49.63;;
23884;SDS011;12123;53.088;7.392;2022-12-17T17:44:25;214.48;;;48.97;;
23884;SDS011;12123;53.088;7.392;2022-12-17T17:46:52;203.45;;;47.08;;
23884;SDS011;12123;53.088;7.392;2022-12-17T17:49:19;214.43;;;48.35;;
23884;SDS011;12123;53.088;7.392;2022-12-17T17:51:47;206.75;;;48.55;;
23884;SDS011;12123;53.088;7.392;2022-12-17T17:54:34;202.20;;;50.50;;
23884;SDS011;12123;53.088;7.392;2022-12-17T17:57:01;214.30;;;52.35;;
23884;SDS011;12123;53.088;7.392;2022-12-17T17:59:28;211.10;;;52.17;;
23884;SDS011;12123;53.088;7.392;2022-12-17T18:01:59;210.95;;;47.90;;
23884;SDS011;12123;53.088;7.392;2022-12-17T18:04:27;216.57;;;51.47;;
23884;SDS011;12123;53.088;7.392;2022-12-17T18:06:56;215.80;;;52.50;;
23884;SDS011;12123;53.088;7.392;2022-12-17T18:09:43;224.93;;;54.30;;
23884;SDS011;12123;53.088;7.392;2022-12-17T18:12:11;227.68;;;52.53;;
23884;SDS011;12123;53.088;7.392;2022-12-17T18:15:07;211.05;;;52.40;;
23884;SDS011;12123;53.088;7.392;2022-12-17T18:17:44;222.45;;;51.33;;
23884;SDS011;12123;53.088;7.392;2022-12-17T18:20:12;221.60;;;51.78;;
23884;SDS011;12123;53.088;7.392;2022-12-17T18:22:39;200.48;;;48.80;;
23884;SDS011;12123;53.088;7.392;2022-12-17T18:25:06;205.65;;;52.00;;
23884;SDS011;12123;53.088;7.392;2022-12-17T18:27:33;214.50;;;49.10;;
23884;SDS011;12123;53.088;7.392;2022-12-17T18:30:00;218.90;;;51.05;;
23884;SDS011;12123;53.088;7.392;2022-12-17T18:32:28;213.20;;;49.03;;
23884;SDS011;12123;53.088;7.392;2022-12-17T18:34:55;228.45;;;55.65;;
23884;SDS011;12123;53.088;7.392;2022-12-17T18:37:22;226.93;;;56.92;;
23884;SDS011;12123;53.088;7.392;2022-12-17T18:39:49;230.95;;;53.83;;
23884;SDS011;12123;53.088;7.392;2022-12-17T18:42:16;233.77;;;52.47;;
23884;SDS011;12123;53.088;7.392;2022-12-17T18:45:02;224.93;;;51.65;;
23884;SDS011;12123;53.088;7.392;2022-12-17T18:47:29;222.80;;;52.92;;
23884;SDS011;12123;53.088;7.392;2022-12-17T18:49:56;208.82;;;51.38;;
23884;SDS011;12123;53.088;7.392;2022-12-17T18:52:23;221.40;;;50.72;;
23884;SDS011;12123;53.088;7.392;2022-12-17T18:54:50;213.35;;;53.95;;
23884;SDS011;12123;53.088;7.392;2022-12-17T18:57:17;220.73;;;53.45;;
23884;SDS011;12123;53.088;7.392;2022-12-17T18:59:44;236.10;;;55.17;;
23884;SDS011;12123;53.088;7.392;2022-12-17T19:02:12;217.48;;;48.92;;
23884;SDS011;12123;53.088;7.392;2022-12-17T19:04:39;231.13;;;53.53;;
23884;SDS011;12123;53.088;7.392;2022-12-17T19:07:06;201.25;;;50.72;;
23884;SDS011;12123;53.088;7.392;2022-12-17T19:09:33;241.27;;;53.47;;
23884;SDS011;12123;53.088;7.392;2022-12-17T19:12:02;225.50;;;53.30;;
23884;SDS011;12123;53.088;7.392;2022-12-17T19:14:30;206.57;;;50.38;;
23884;SDS011;12123;53.088;7.392;2022-12-17T19:16:58;202.57;;;45.80;;
23884;SDS011;12123;53.088;7.392;2022-12-17T19:19:25;215.68;;;53.63;;
23884;SDS011;12123;53.088;7.392;2022-12-17T19:21:53;200.63;;;48.25;;
23884;SDS011;12123;53.088;7.392;2022-12-17T19:24:21;203.38;;;48.90;;
23884;SDS011;12123;53.088;7.392;2022-12-17T19:26:48;190.15;;;48.70;;
23884;SDS011;12123;53.088;7.392;2022-12-17T19:29:16;193.23;;;49.53;;
23884;SDS011;12123;53.088;7.392;2022-12-17T19:31:44;202.38;;;47.53;;
23884;SDS011;12123;53.088;7.392;2022-12-17T19:34:12;206.25;;;50.58;;
23884;SDS011;12123;53.088;7.392;2022-12-17T19:36:39;203.70;;;51.20;;
23884;SDS011;12123;53.088;7.392;2022-12-17T19:39:07;215.52;;;50.85;;
23884;SDS011;12123;53.088;7.392;2022-12-17T19:41:34;199.43;;;50.88;;
23884;SDS011;12123;53.088;7.392;2022-12-17T19:44:03;196.02;;;50.58;;
23884;SDS011;12123;53.088;7.392;2022-12-17T19:46:31;205.20;;;50.67;;
23884;SDS011;12123;53.088;7.392;2022-12-17T19:48:58;202.82;;;52.10;;
23884;SDS011;12123;53.088;7.392;2022-12-17T19:51:26;193.48;;;50.20;;
23884;SDS011;12123;53.088;7.392;2022-12-17T19:53:54;197.73;;;51.03;;
23884;SDS011;12123;53.088;7.392;2022-12-17T19:56:22;179.68;;;49.45;;
23884;SDS011;12123;53.088;7.392;2022-12-17T19:58:50;169.13;;;46.00;;
23884;SDS011;12123;53.088;7.392;2022-12-17T20:01:19;167.07;;;45.90;;
23884;SDS011;12123;53.088;7.392;2022-12-17T20:03:47;174.60;;;46.30;;
23884;SDS011;12123;53.088;7.392;2022-12-17T20:06:15;184.90;;;49.13;;
23884;SDS011;12123;53.088;7.392;2022-12-17T20:08:43;176.32;;;46.33;;
23884;SDS011;12123;53.088;7.392;2022-12-17T20:11:11;185.32;;;51.28;;
23884;SDS011;12123;53.088;7.392;2022-12-17T20:16:25;186.95;;;51.70;;
23884;SDS011;12123;53.088;7.392;2022-12-17T20:18:52;187.82;;;49.88;;
23884;SDS011;12123;53.088;7.392;2022-12-17T20:21:19;207.48;;;51.70;;
23884;SDS011;12123;53.088;7.392;2022-12-17T20:23:47;196.90;;;52.50;;
23884;SDS011;12123;53.088;7.392;2022-12-17T20:26:14;189.52;;;48.22;;
23884;SDS011;12123;53.088;7.392;2022-12-17T20:28:42;188.25;;;52.05;;
23884;SDS011;12123;53.088;7.392;2022-12-17T20:31:09;188.65;;;51.45;;
23884;SDS011;12123;53.088;7.392;2022-12-17T20:33:36;193.25;;;54.40;;
23884;SDS011;12123;53.088;7.392;2022-12-17T20:36:07;207.00;;;52.63;;
23884;SDS011;12123;53.088;7.392;2022-12-17T20:38:35;172.38;;;49.90;;
23884;SDS011;12123;53.088;7.392;2022-12-17T20:43:36;195.27;;;52.38;;
23884;SDS011;12123;53.088;7.392;2022-12-17T20:46:03;189.60;;;51.20;;
23884;SDS011;12123;53.088;7.392;2022-12-17T20:48:30;193.15;;;54.13;;
23884;SDS011;12123;53.088;7.392;2022-12-17T20:50:58;187.00;;;48.42;;
23884;SDS011;12123;53.088;7.392;2022-12-17T20:53:25;191.73;;;50.80;;
23884;SDS011;12123;53.088;7.392;2022-12-17T20:56:02;182.57;;;52.25;;
23884;SDS011;12123;53.088;7.392;2022-12-17T20:58:30;190.20;;;51.47;;
23884;SDS011;12123;53.088;7.392;2022-12-17T21:01:01;188.25;;;51.25;;
23884;SDS011;12123;53.088;7.392;2022-12-17T21:03:28;188.02;;;50.70;;
23884;SDS011;12123;53.088;7.392;2022-12-17T21:06:11;179.48;;;49.38;;
23884;SDS011;12123;53.088;7.392;2022-12-17T21:08:39;172.07;;;45.85;;
23884;SDS011;12123;53.088;7.392;2022-12-17T21:11:15;182.90;;;50.05;;
23884;SDS011;12123;53.088;7.392;2022-12-17T21:13:42;177.65;;;48.20;;
23884;SDS011;12123;53.088;7.392;2022-12-17T21:16:10;171.75;;;49.40;;
23884;SDS011;12123;53.088;7.392;2022-12-17T21:18:38;180.43;;;48.80;;
23884;SDS011;12123;53.088;7.392;2022-12-17T21:21:07;187.45;;;48.13;;
23884;SDS011;12123;53.088;7.392;2022-12-17T21:23:34;178.00;;;47.42;;
23884;SDS011;12123;53.088;7.392;2022-12-17T21:26:10;172.93;;;46.40;;
23884;SDS011;12123;53.088;7.392;2022-12-17T21:28:38;175.82;;;48.47;;
23884;SDS011;12123;53.088;7.392;2022-12-17T21:31:30;184.13;;;45.55;;
23884;SDS011;12123;53.088;7.392;2022-12-17T21:33:56;176.85;;;50.78;;
23884;SDS011;12123;53.088;7.392;2022-12-17T21:36:26;173.18;;;47.45;;
23884;SDS011;12123;53.088;7.392;2022-12-17T21:38:53;177.43;;;50.17;;
23884;SDS011;12123;53.088;7.392;2022-12-17T21:41:24;182.07;;;47.72;;
23884;SDS011;12123;53.088;7.392;2022-12-17T21:43:55;173.13;;;47.38;;
23884;SDS011;12123;53.088;7.392;2022-12-17T21:46:23;165.13;;;50.15;;
23884;SDS011;12123;53.088;7.392;2022-12-17T21:48:52;163.05;;;47.13;;
23884;SDS011;12123;53.088;7.392;2022-12-17T21:51:20;165.52;;;49.25;;
23884;SDS011;12123;53.088;7.392;2022-12-17T21:53:50;173.75;;;51.70;;
23884;SDS011;12123;53.088;7.392;2022-12-17T21:56:17;167.90;;;49.58;;
23884;SDS011;12123;53.088;7.392;2022-12-17T21:58:45;181.40;;;52.33;;
23884;SDS011;12123;53.088;7.392;2022-12-17T22:01:13;176.80;;;49.45;;
23884;SDS011;12123;53.088;7.392;2022-12-17T22:03:44;173.82;;;50.92;;
23884;SDS011;12123;53.088;7.392;2022-12-17T22:06:13;167.32;;;52.03;;
23884;SDS011;12123;53.088;7.392;2022-12-17T22:08:42;160.23;;;46.72;;
23884;SDS011;12123;53.088;7.392;2022-12-17T22:11:10;151.57;;;43.85;;
23884;SDS011;12123;53.088;7.392;2022-12-17T22:13:40;162.90;;;46.35;;
23884;SDS011;12123;53.088;7.392;2022-12-17T22:19:08;143.02;;;44.95;;
23884;SDS011;12123;53.088;7.392;2022-12-17T22:21:37;148.88;;;45.60;;
23884;SDS011;12123;53.088;7.392;2022-12-17T22:24:05;148.63;;;45.65;;
23884;SDS011;12123;53.088;7.392;2022-12-17T22:26:32;154.63;;;45.90;;
23884;SDS011;12123;53.088;7.392;2022-12-17T22:28:59;146.25;;;48.15;;
23884;SDS011;12123;53.088;7.392;2022-12-17T22:31:26;144.65;;;47.30;;
23884;SDS011;12123;53.088;7.392;2022-12-17T22:34:13;155.40;;;44.83;;
23884;SDS011;12123;53.088;7.392;2022-12-17T22:37:00;133.52;;;42.83;;
23884;SDS011;12123;53.088;7.392;2022-12-17T22:39:47;144.82;;;45.10;;
23884;SDS011;12123;53.088;7.392;2022-12-17T22:42:34;152.82;;;45.40;;
23884;SDS011;12123;53.088;7.392;2022-12-17T22:45:40;148.07;;;44.20;;
23884;SDS011;12123;53.088;7.392;2022-12-17T22:48:08;154.48;;;45.72;;
23884;SDS011;12123;53.088;7.392;2022-12-17T22:50:35;151.93;;;45.60;;
23884;SDS011;12123;53.088;7.392;2022-12-17T22:53:23;140.82;;;45.38;;
23884;SDS011;12123;53.088;7.392;2022-12-17T22:55:51;150.57;;;45.55;;
23884;SDS011;12123;53.088;7.392;2022-12-17T22:58:19;149.00;;;42.83;;
23884;SDS011;12123;53.088;7.392;2022-12-17T23:00:46;148.48;;;43.88;;
23884;SDS011;12123;53.088;7.392;2022-12-17T23:03:13;143.95;;;45.17;;
23884;SDS011;12123;53.088;7.392;2022-12-17T23:05:40;144.07;;;45.55;;
23884;SDS011;12123;53.088;7.392;2022-12-17T23:08:07;147.50;;;45.25;;
23884;SDS011;12123;53.088;7.392;2022-12-17T23:10:34;151.15;;;45.80;;
23884;SDS011;12123;53.088;7.392;2022-12-17T23:13:01;158.48;;;47.65;;
23884;SDS011;12123;53.088;7.392;2022-12-17T23:15:29;151.50;;;45.08;;
23884;SDS011;12123;53.088;7.392;2022-12-17T23:17:59;152.32;;;44.85;;
23884;SDS011;12123;53.088;7.392;2022-12-17T23:20:27;151.23;;;45.63;;
23884;SDS011;12123;53.088;7.392;2022-12-17T23:22:55;156.45;;;45.92;;
23884;SDS011;12123;53.088;7.392;2022-12-17T23:25:22;140.50;;;45.45;;
23884;SDS011;12123;53.088;7.392;2022-12-17T23:27:49;164.88;;;47.42;;
23884;SDS011;12123;53.088;7.392;2022-12-17T23:30:17;139.77;;;45.30;;
23884;SDS011;12123;53.088;7.392;2022-12-17T23:32:44;146.65;;;45.28;;
23884;SDS011;12123;53.088;7.392;2022-12-17T23:35:11;142.23;;;42.75;;
23884;SDS011;12123;53.088;7.392;2022-12-17T23:37:39;144.85;;;44.22;;
23884;SDS011;12123;53.088;7.392;2022-12-17T23:40:09;133.50;;;44.00;;
23884;SDS011;12123;53.088;7.392;2022-12-17T23:42:37;143.82;;;45.80;;
23884;SDS011;12123;53.088;7.392;2022-12-17T23:45:04;145.63;;;44.97;;
23884;SDS011;12123;53.088;7.392;2022-12-17T23:47:32;142.80;;;47.35;;
23884;SDS011;12123;53.088;7.392;2022-12-17T23:49:59;141.05;;;43.33;;
23884;SDS011;12123;53.088;7.392;2022-12-17T23:52:26;150.80;;;44.92;;
23884;SDS011;12123;53.088;7.392;2022-12-17T23:54:53;145.57;;;43.65;;
23884;SDS011;12123;53.088;7.392;2022-12-17T23:57:20;143.18;;;44.95;;
23884;SDS011;12123;53.088;7.392;2022-12-17T23:59:47;137.80;;;44.63;;
